Time;durP1;ratioP1;P1;durP2;ratioP2;P2;SDS_P1;SDS_P2;PMS_P1;PMS_P2;Temp;Humidity;BMP_temperature;BMP_pressure;BME280_temperature;BME280_humidity;BME280_pressure;Samples;Min_cycle;Max_cycle;Signal;HPM_P1;HPM_P2
2022/02/19 00:00:48;;;;;;;1.75;0.60;;;6.60;99.90;;;;;;5010829;28;20124;-66
2022/02/19 00:03:13;;;;;;;0.77;0.77;;;6.70;99.90;;;;;;5012322;28;20113;-66
2022/02/19 00:05:39;;;;;;;0.63;0.47;;;6.80;99.90;;;;;;5009637;28;20414;-66
2022/02/19 00:08:06;;;;;;;1.05;0.70;;;6.70;99.90;;;;;;5011718;28;20044;-66
2022/02/19 00:10:32;;;;;;;1.30;0.90;;;6.70;99.90;;;;;;5012101;28;20309;-66
2022/02/19 00:12:58;;;;;;;1.33;0.65;;;6.70;99.90;;;;;;5012443;28;20030;-66
2022/02/19 00:15:25;;;;;;;2.65;0.90;;;6.70;99.90;;;;;;5008782;28;20032;-66
2022/02/19 00:17:51;;;;;;;0.88;0.73;;;6.70;99.90;;;;;;5011488;28;20384;-66
2022/02/19 00:20:17;;;;;;;3.53;1.30;;;6.70;99.90;;;;;;5012142;28;20044;-66
2022/02/19 00:22:43;;;;;;;7.00;0.80;;;6.70;99.90;;;;;;5007714;28;20038;-66
2022/02/19 00:25:09;;;;;;;1.08;0.90;;;6.70;99.90;;;;;;5010831;28;20022;-66
2022/02/19 00:27:35;;;;;;;1.13;1.02;;;6.80;99.90;;;;;;5009845;28;20046;-65
2022/02/19 00:30:00;;;;;;;1.13;0.70;;;6.80;99.90;;;;;;5008200;28;20045;-66
2022/02/19 00:32:26;;;;;;;2.42;0.80;;;6.70;99.90;;;;;;5009168;28;20092;-66
2022/02/19 00:34:52;;;;;;;2.22;0.90;;;6.70;99.90;;;;;;5011068;28;20049;-66
2022/02/19 00:37:18;;;;;;;2.50;0.73;;;6.70;99.90;;;;;;5011431;28;20104;-66
2022/02/19 00:39:43;;;;;;;1.67;1.10;;;6.60;99.90;;;;;;5010644;28;20096;-66
2022/02/19 00:42:09;;;;;;;0.93;0.60;;;6.60;99.90;;;;;;5011277;28;20369;-66
2022/02/19 00:44:35;;;;;;;2.17;0.70;;;6.60;99.90;;;;;;5010320;28;20030;-66
2022/02/19 00:47:01;;;;;;;1.45;1.00;;;6.70;99.90;;;;;;5010610;28;20026;-66
2022/02/19 00:49:27;;;;;;;1.08;0.77;;;6.60;99.90;;;;;;5011763;28;20037;-66
2022/02/19 00:51:53;;;;;;;1.98;0.88;;;6.70;99.90;;;;;;5007090;28;20821;-66
2022/02/19 00:54:18;;;;;;;2.08;0.85;;;6.60;99.90;;;;;;5006287;28;20030;-66
2022/02/19 00:56:44;;;;;;;2.55;0.90;;;6.60;99.90;;;;;;5010357;28;20034;-66
2022/02/19 00:59:10;;;;;;;1.83;0.85;;;6.70;99.90;;;;;;5010460;28;20042;-66
2022/02/19 01:01:37;;;;;;;1.48;0.80;;;6.60;99.90;;;;;;5010159;28;20046;-66
2022/02/19 01:04:03;;;;;;;2.17;0.98;;;6.60;99.90;;;;;;5006946;28;20485;-66
2022/02/19 01:06:28;;;;;;;0.70;0.70;;;6.60;99.90;;;;;;5011194;28;20071;-65
2022/02/19 01:08:55;;;;;;;7.80;0.90;;;6.60;99.90;;;;;;5011248;28;20033;-65
2022/02/19 01:11:20;;;;;;;8.70;1.30;;;6.60;99.90;;;;;;5011613;28;20101;-65
2022/02/19 01:13:47;;;;;;;1.70;0.80;;;6.60;99.90;;;;;;5006474;28;20053;-65
2022/02/19 01:16:13;;;;;;;2.00;1.00;;;6.60;99.90;;;;;;5010853;28;20627;-66
2022/02/19 01:18:38;;;;;;;1.30;0.80;;;6.60;99.90;;;;;;5009789;28;20041;-66
2022/02/19 01:21:04;;;;;;;2.25;0.98;;;6.50;99.90;;;;;;5011132;28;20157;-66
2022/02/19 01:23:29;;;;;;;1.45;0.90;;;6.50;99.90;;;;;;5010575;28;20439;-66
2022/02/19 01:25:55;;;;;;;1.38;1.13;;;6.60;99.90;;;;;;5005044;28;20492;-66
2022/02/19 01:28:21;;;;;;;1.55;0.75;;;6.60;99.90;;;;;;5010049;28;20049;-66
2022/02/19 01:30:47;;;;;;;2.75;0.70;;;6.50;99.90;;;;;;5009418;28;20045;-66
2022/02/19 01:33:12;;;;;;;6.47;1.00;;;6.50;99.90;;;;;;5010373;28;20030;-66
2022/02/19 01:35:38;;;;;;;1.25;0.70;;;6.50;99.90;;;;;;5009177;28;20029;-66
2022/02/19 01:38:04;;;;;;;0.50;0.50;;;6.40;99.90;;;;;;5006773;28;20038;-66
2022/02/19 01:40:31;;;;;;;1.38;0.77;;;6.50;99.90;;;;;;5011106;28;20029;-66
2022/02/19 01:42:56;;;;;;;0.90;0.60;;;6.50;99.90;;;;;;5007757;28;20049;-66
2022/02/19 01:45:22;;;;;;;0.60;0.60;;;6.50;99.90;;;;;;5012102;28;20497;-66
2022/02/19 01:47:48;;;;;;;0.77;0.60;;;6.50;99.90;;;;;;5011005;28;20507;-66
2022/02/19 01:50:14;;;;;;;0.98;0.65;;;6.40;99.90;;;;;;5009942;28;20034;-66
2022/02/19 01:52:43;;;;;;;0.77;0.60;;;6.40;99.90;;;;;;5009444;28;20045;-66
2022/02/19 01:55:10;;;;;;;2.88;0.90;;;6.40;99.90;;;;;;5001996;28;20633;-66
2022/02/19 01:57:36;;;;;;;1.80;0.90;;;6.40;99.90;;;;;;5009537;28;20042;-65
2022/02/19 02:00:05;;;;;;;2.53;0.70;;;6.40;99.90;;;;;;5007332;28;20033;-66
2022/02/19 02:02:31;;;;;;;;;;;6.30;99.90;;;;;;5008859;28;20091;-66
2022/02/19 02:04:59;;;;;;;2.38;1.15;;;6.40;99.90;;;;;;5024753;28;20446;-67
2022/02/19 02:07:25;;;;;;;;;;;6.40;99.90;;;;;;5004870;28;20036;-66
2022/02/19 02:09:51;;;;;;;0.60;0.60;;;6.40;99.90;;;;;;5010212;28;19917;-66
2022/02/19 02:12:17;;;;;;;1.83;0.70;;;6.40;99.90;;;;;;5007263;28;20030;-66
2022/02/19 02:14:43;;;;;;;1.55;0.60;;;6.40;99.90;;;;;;5012004;28;20040;-66
2022/02/19 02:17:10;;;;;;;0.98;0.73;;;6.40;99.90;;;;;;5009892;28;20034;-66
2022/02/19 02:19:37;;;;;;;0.93;0.80;;;6.40;99.90;;;;;;5010238;28;20366;-66
2022/02/19 02:22:04;;;;;;;2.35;1.23;;;6.30;99.90;;;;;;5008251;28;20088;-66
2022/02/19 02:24:34;;;;;;;0.90;0.73;;;6.30;99.90;;;;;;5009190;28;20026;-66
2022/02/19 02:27:00;;;;;;;1.65;0.70;;;6.30;99.90;;;;;;5006312;28;20084;-66
2022/02/19 02:29:35;;;;;;;1.00;0.82;;;6.30;99.90;;;;;;5000072;28;20026;-67
2022/02/19 02:32:00;;;;;;;2.28;0.85;;;6.30;99.90;;;;;;5001384;28;20038;-66
2022/02/19 02:34:26;;;;;;;4.43;1.15;;;6.20;99.90;;;;;;5003397;28;20040;-66
2022/02/19 02:36:51;;;;;;;1.60;0.98;;;6.20;99.90;;;;;;5008715;28;20469;-66
2022/02/19 02:39:17;;;;;;;1.50;1.40;;;6.20;99.90;;;;;;5009304;28;20041;-66
2022/02/19 02:41:43;;;;;;;1.80;0.80;;;6.20;99.90;;;;;;5009071;28;20026;-66
2022/02/19 02:44:08;;;;;;;0.75;0.75;;;6.20;99.90;;;;;;5003873;28;20038;-65
2022/02/19 02:46:34;;;;;;;2.53;1.15;;;6.20;99.90;;;;;;5007703;28;20026;-65
2022/02/19 02:48:59;;;;;;;0.80;0.80;;;6.20;99.90;;;;;;5008598;28;20055;-66
2022/02/19 02:51:25;;;;;;;4.88;1.25;;;6.20;99.90;;;;;;5007171;28;20052;-65
2022/02/19 02:53:52;;;;;;;2.33;0.95;;;6.10;99.90;;;;;;5008128;28;20041;-66
2022/02/19 02:56:18;;;;;;;1.80;0.80;;;6.10;99.90;;;;;;5006709;28;20042;-66
2022/02/19 02:58:43;;;;;;;1.95;0.90;;;6.20;99.90;;;;;;5005630;28;20038;-65
2022/02/19 03:01:09;;;;;;;1.27;0.60;;;6.00;99.90;;;;;;5004165;28;20064;-66
2022/02/19 03:03:35;;;;;;;2.58;1.20;;;6.10;99.90;;;;;;5006377;28;20040;-66
2022/02/19 03:06:03;;;;;;;1.55;1.02;;;6.00;99.90;;;;;;5005766;28;20033;-65
2022/02/19 03:08:28;;;;;;;1.08;0.85;;;6.00;99.90;;;;;;5007084;28;20124;-65
2022/02/19 03:10:54;;;;;;;1.63;1.08;;;6.10;99.90;;;;;;5006514;28;20034;-65
2022/02/19 03:13:20;;;;;;;1.70;0.82;;;6.00;99.90;;;;;;5012445;28;20037;-65
2022/02/19 03:15:45;;;;;;;0.80;0.80;;;6.00;99.90;;;;;;5008553;28;20536;-66
2022/02/19 03:18:11;;;;;;;3.42;0.70;;;5.90;99.90;;;;;;5011234;28;20026;-66
2022/02/19 03:20:39;;;;;;;1.25;0.82;;;5.90;99.90;;;;;;5012043;28;20080;-66
2022/02/19 03:23:06;;;;;;;1.70;0.95;;;5.90;99.90;;;;;;5011931;28;20036;-66
2022/02/19 03:25:32;;;;;;;3.50;0.98;;;5.80;99.90;;;;;;5012377;28;20033;-66
2022/02/19 03:27:58;;;;;;;1.52;0.70;;;5.70;99.90;;;;;;5011598;28;20799;-67
2022/02/19 03:30:24;;;;;;;5.43;1.17;;;5.70;99.90;;;;;;5011610;28;20030;-66
2022/02/19 03:32:50;;;;;;;4.28;1.10;;;5.70;99.90;;;;;;5021756;28;20061;-66
2022/02/19 03:35:15;;;;;;;4.57;1.35;;;5.70;99.90;;;;;;5007671;28;20799;-66
2022/02/19 03:37:41;;;;;;;2.28;1.10;;;5.70;99.90;;;;;;5010449;28;20026;-66
2022/02/19 03:40:08;;;;;;;3.90;1.30;;;5.60;99.90;;;;;;5009834;28;20121;-66
2022/02/19 03:42:35;;;;;;;1.85;0.98;;;5.60;99.90;;;;;;5002202;28;20030;-66
2022/02/19 03:45:02;;;;;;;2.80;1.02;;;5.50;99.90;;;;;;5001780;28;20103;-66
2022/02/19 03:47:27;;;;;;;5.15;1.05;;;5.50;99.90;;;;;;5005319;28;20053;-66
2022/02/19 03:49:53;;;;;;;2.80;1.23;;;5.50;99.90;;;;;;5010199;28;20030;-67
2022/02/19 03:52:19;;;;;;;1.27;0.80;;;5.50;99.90;;;;;;5010457;28;20029;-66
2022/02/19 03:54:45;;;;;;;2.72;0.90;;;5.50;99.90;;;;;;5010322;28;20042;-66
2022/02/19 03:57:11;;;;;;;1.55;0.85;;;5.50;99.90;;;;;;5011688;28;20036;-66
2022/02/19 03:59:36;;;;;;;2.70;0.90;;;5.50;99.90;;;;;;5008612;28;20643;-66
2022/02/19 04:02:02;;;;;;;1.85;0.85;;;5.40;99.90;;;;;;5009525;28;20121;-66
2022/02/19 04:04:27;;;;;;;2.25;1.02;;;5.50;99.90;;;;;;5007444;28;20029;-66
2022/02/19 04:06:53;;;;;;;2.03;1.25;;;5.50;99.90;;;;;;5009081;28;20037;-66
2022/02/19 04:09:19;;;;;;;2.22;1.00;;;5.40;99.90;;;;;;5009933;28;20480;-66
2022/02/19 04:11:44;;;;;;;1.25;1.02;;;5.40;99.90;;;;;;5012419;28;20476;-66
2022/02/19 04:14:10;;;;;;;1.27;0.95;;;5.40;99.90;;;;;;5008512;28;20818;-66
2022/02/19 04:16:35;;;;;;;0.90;0.90;;;5.30;99.90;;;;;;5011021;28;20036;-66
2022/02/19 04:19:01;;;;;;;4.15;1.10;;;5.30;99.90;;;;;;5011700;28;20045;-66
2022/02/19 04:21:27;;;;;;;2.42;1.35;;;5.40;99.90;;;;;;5010857;28;20029;-66
2022/02/19 04:23:53;;;;;;;1.00;0.90;;;5.40;99.90;;;;;;5009046;28;20034;-66
2022/02/19 04:26:19;;;;;;;2.10;1.00;;;5.40;99.90;;;;;;5010472;28;20030;-66
2022/02/19 04:28:54;;;;;;;2.15;1.08;;;5.40;99.90;;;;;;5008478;28;20517;-66
2022/02/19 04:31:20;;;;;;;2.28;0.93;;;5.40;99.90;;;;;;5009780;28;20469;-66
2022/02/19 04:33:45;;;;;;;2.13;1.10;;;5.50;99.90;;;;;;5008739;28;20026;-66
2022/02/19 04:36:11;;;;;;;1.92;1.08;;;5.50;99.90;;;;;;5005837;28;20121;-67
2022/02/19 04:38:36;;;;;;;4.78;1.20;;;5.60;99.90;;;;;;5011302;28;20046;-66
2022/02/19 04:41:02;;;;;;;6.70;1.02;;;5.50;99.90;;;;;;5010503;28;20037;-66
2022/02/19 04:43:28;;;;;;;2.38;1.45;;;5.50;99.90;;;;;;5011671;28;20373;-66
2022/02/19 04:45:53;;;;;;;3.08;1.30;;;5.50;99.90;;;;;;5006124;28;20113;-66
2022/02/19 04:48:19;;;;;;;6.47;1.15;;;5.60;99.90;;;;;;5007539;28;20037;-66
2022/02/19 04:50:45;;;;;;;1.92;1.15;;;5.60;99.90;;;;;;5008309;28;20689;-66
2022/02/19 04:53:10;;;;;;;1.67;1.40;;;5.50;99.90;;;;;;5010873;28;20037;-66
2022/02/19 04:55:36;;;;;;;2.63;1.25;;;5.50;99.90;;;;;;5007083;28;20092;-66
2022/02/19 04:58:03;;;;;;;1.88;0.90;;;5.50;99.90;;;;;;5008217;28;20038;-66
2022/02/19 05:00:29;;;;;;;2.10;1.02;;;5.50;99.90;;;;;;5009561;28;20037;-66
2022/02/19 05:02:55;;;;;;;5.30;1.08;;;5.50;99.90;;;;;;5007681;28;20038;-66
2022/02/19 05:05:20;;;;;;;1.92;0.80;;;5.40;99.90;;;;;;5007881;28;20030;-66
2022/02/19 05:07:46;;;;;;;1.20;0.90;;;5.40;99.90;;;;;;5009233;28;20113;-66
2022/02/19 05:10:12;;;;;;;1.23;0.98;;;5.50;99.90;;;;;;5010750;28;20034;-66
2022/02/19 05:12:41;;;;;;;1.25;0.80;;;5.50;99.90;;;;;;5026419;28;20030;-66
2022/02/19 05:15:15;;;;;;;1.15;1.02;;;5.50;99.90;;;;;;5008811;28;20044;-66
2022/02/19 05:17:51;;;;;;;1.65;0.80;;;5.50;99.90;;;;;;5008126;28;20153;-66
2022/02/19 05:20:21;;;;;;;2.95;1.02;;;5.40;99.90;;;;;;5010017;28;20038;-66
2022/02/19 05:22:47;;;;;;;2.38;1.25;;;5.50;99.90;;;;;;5009798;28;20045;-66
2022/02/19 05:25:13;;;;;;;2.22;1.30;;;5.40;99.90;;;;;;5009774;28;20044;-66
2022/02/19 05:27:39;;;;;;;3.40;1.23;;;5.40;99.90;;;;;;5006732;28;20053;-66
2022/02/19 05:30:05;;;;;;;5.85;1.30;;;5.40;99.90;;;;;;5004676;28;20034;-66
2022/02/19 05:32:31;;;;;;;5.53;1.50;;;5.40;99.90;;;;;;5009393;28;20034;-66
2022/02/19 05:34:57;;;;;;;2.92;1.20;;;5.30;99.90;;;;;;5008145;28;20030;-66
2022/02/19 05:37:23;;;;;;;3.35;1.25;;;5.30;99.90;;;;;;5009817;28;20033;-66
2022/02/19 05:39:49;;;;;;;2.08;0.90;;;5.30;99.90;;;;;;5006539;28;20049;-66
2022/02/19 05:42:15;;;;;;;3.35;1.30;;;5.30;99.90;;;;;;5025687;28;20026;-66
2022/02/19 05:44:41;;;;;;;3.00;1.17;;;5.20;99.90;;;;;;5009408;28;20053;-66
2022/02/19 05:47:06;;;;;;;2.35;1.02;;;5.20;99.90;;;;;;5007921;28;20114;-66
2022/02/19 05:49:32;;;;;;;3.25;1.45;;;5.20;99.90;;;;;;5008874;28;20037;-66
2022/02/19 05:51:57;;;;;;;0.88;0.88;;;5.10;99.90;;;;;;5004982;28;20034;-66
2022/02/19 05:54:26;;;;;;;4.57;1.08;;;5.10;99.90;;;;;;5006464;28;20080;-66
2022/02/19 05:56:52;;;;;;;1.33;1.20;;;5.10;99.90;;;;;;5008197;28;20040;-65
2022/02/19 05:59:17;;;;;;;6.85;1.27;;;5.00;99.90;;;;;;5009190;28;20485;-66
2022/02/19 06:01:43;;;;;;;4.47;1.25;;;5.00;99.90;;;;;;5003517;28;20088;-66
2022/02/19 06:04:09;;;;;;;4.35;1.20;;;4.90;99.90;;;;;;5007188;28;20030;-66
2022/02/19 06:06:34;;;;;;;2.05;1.20;;;4.90;99.90;;;;;;5007903;28;20087;-65
2022/02/19 06:09:00;;;;;;;11.43;1.73;;;4.80;99.90;;;;;;5007166;28;20699;-66
2022/02/19 06:11:25;;;;;;;0.93;0.93;;;4.80;99.90;;;;;;5009848;28;20034;-66
2022/02/19 06:13:51;;;;;;;1.33;1.00;;;4.80;99.90;;;;;;5004660;28;20053;-66
2022/02/19 06:16:17;;;;;;;5.18;1.65;;;4.80;99.90;;;;;;5007514;28;20030;-65
2022/02/19 06:18:43;;;;;;;2.30;1.27;;;4.80;99.90;;;;;;5006727;28;20113;-66
2022/02/19 06:21:08;;;;;;;4.22;1.73;;;4.80;99.90;;;;;;5023181;28;20045;-66
2022/02/19 06:23:34;;;;;;;4.38;1.20;;;4.70;99.90;;;;;;5006637;28;20044;-66
2022/02/19 06:26:00;;;;;;;5.22;1.40;;;4.70;99.90;;;;;;5009472;28;20496;-67
2022/02/19 06:28:25;;;;;;;3.60;0.80;;;4.70;99.90;;;;;;5005240;28;20076;-66
2022/02/19 06:30:51;;;;;;;8.82;1.23;;;4.70;99.90;;;;;;5006034;28;20080;-67
2022/02/19 06:33:16;;;;;;;2.15;1.30;;;4.70;99.90;;;;;;5002760;28;20034;-66
2022/02/19 06:35:42;;;;;;;2.55;0.80;;;4.70;99.90;;;;;;5007794;28;20037;-66
2022/02/19 06:38:08;;;;;;;3.50;1.20;;;4.70;99.90;;;;;;5006790;28;20038;-66
2022/02/19 06:40:33;;;;;;;1.70;1.27;;;4.70;99.90;;;;;;5005842;28;20038;-66
2022/02/19 06:42:59;;;;;;;3.03;0.82;;;4.70;99.90;;;;;;5005449;28;20544;-66
2022/02/19 06:45:25;;;;;;;5.75;1.30;;;4.70;99.90;;;;;;5011776;28;20083;-66
2022/02/19 06:47:51;;;;;;;6.93;1.23;;;4.80;99.90;;;;;;5013347;28;20057;-65
2022/02/19 06:50:16;;;;;;;5.70;1.10;;;4.60;99.90;;;;;;5013858;28;20065;-66
2022/02/19 06:52:43;;;;;;;3.55;1.27;;;4.70;99.90;;;;;;5013505;28;20122;-66
2022/02/19 06:55:09;;;;;;;2.83;0.90;;;4.70;99.90;;;;;;5009525;28;20073;-66
2022/02/19 06:57:36;;;;;;;5.90;1.00;;;4.70;99.90;;;;;;5011343;28;20049;-65
2022/02/19 07:00:05;;;;;;;5.00;1.85;;;4.70;99.90;;;;;;5011188;28;20050;-66
2022/02/19 07:02:31;;;;;;;5.60;1.38;;;4.80;99.90;;;;;;5024442;28;20033;-66
2022/02/19 07:04:57;;;;;;;1.02;0.98;;;4.80;99.90;;;;;;5011102;28;20030;-65
2022/02/19 07:07:22;;;;;;;4.70;0.90;;;4.80;99.90;;;;;;5011528;28;20400;-65
2022/02/19 07:09:48;;;;;;;5.00;1.13;;;4.80;99.90;;;;;;5005104;28;20064;-66
2022/02/19 07:12:16;;;;;;;4.28;1.60;;;4.80;99.90;;;;;;5009953;28;20033;-66
2022/02/19 07:14:42;;;;;;;;;;;4.80;99.90;;;;;;5010595;28;20034;-66
2022/02/19 07:17:09;;;;;;;4.18;0.90;;;4.90;99.90;;;;;;5012618;28;19920;-66
2022/02/19 07:19:36;;;;;;;2.83;1.73;;;4.90;99.90;;;;;;5011921;28;20393;-66
2022/02/19 07:22:03;;;;;;;3.33;1.10;;;4.90;99.60;;;;;;5012532;28;20044;-65
2022/02/19 07:24:29;;;;;;;4.57;1.17;;;5.00;96.50;;;;;;5009683;28;20041;-65
2022/02/19 07:26:56;;;;;;;5.40;1.13;;;5.00;95.00;;;;;;5006235;28;20076;-65
2022/02/19 07:29:23;;;;;;;7.57;1.20;;;5.10;96.00;;;;;;5007242;28;20024;-66
2022/02/19 07:31:48;;;;;;;2.60;1.15;;;5.20;93.70;;;;;;5010470;28;20522;-65
2022/02/19 07:34:14;;;;;;;5.20;1.63;;;5.10;95.00;;;;;;5009114;28;20030;-66
2022/02/19 07:36:41;;;;;;;3.80;1.23;;;5.10;95.50;;;;;;5009794;28;20053;-66
2022/02/19 07:39:11;;;;;;;4.65;1.50;;;5.10;92.00;;;;;;5026026;28;20038;-65
2022/02/19 07:41:37;;;;;;;2.95;1.10;;;5.30;91.30;;;;;;5011148;28;20033;-66
2022/02/19 07:44:07;;;;;;;4.30;1.38;;;5.20;90.80;;;;;;5006960;28;20085;-66
2022/02/19 07:46:36;;;;;;;4.32;1.40;;;5.20;92.80;;;;;;5004610;28;20084;-66
2022/02/19 07:58:18;;;;;;;5.05;1.10;;;5.30;93.80;;;;;;5007103;28;20401;-66
2022/02/19 08:00:00;;;;;;;3.97;1.17;;;5.40;93.40;;;;;;5003985;28;20064;-65
2022/02/19 08:02:26;;;;;;;3.42;1.15;;;5.40;92.30;;;;;;5004936;28;20049;-66
2022/02/19 08:04:52;;;;;;;3.45;0.90;;;5.40;90.40;;;;;;5002841;28;20030;-66
2022/02/19 08:07:17;;;;;;;6.30;1.42;;;5.50;91.60;;;;;;5007513;28;20469;-66
2022/02/19 08:09:43;;;;;;;6.00;0.98;;;5.50;85.20;;;;;;5006818;28;20030;-66
2022/02/19 08:12:09;;;;;;;4.05;1.20;;;5.60;91.40;;;;;;5007665;28;20083;-66
2022/02/19 08:14:34;;;;;;;9.32;1.77;;;5.60;89.30;;;;;;5005988;28;20029;-66
2022/02/19 08:17:00;;;;;;;8.18;1.50;;;5.60;82.60;;;;;;5008198;28;20740;-65
2022/02/19 08:19:25;;;;;;;7.97;1.60;;;5.70;80.90;;;;;;5005238;28;20196;-65
2022/02/19 08:21:51;;;;;;;4.30;1.63;;;5.70;80.80;;;;;;5005069;28;20033;-65
2022/02/19 08:24:17;;;;;;;5.72;1.45;;;5.70;82.90;;;;;;5007544;28;20033;-66
2022/02/19 08:26:42;;;;;;;2.80;1.10;;;5.80;79.50;;;;;;5009821;28;20118;-66
2022/02/19 08:29:09;;;;;;;4.32;1.10;;;5.80;79.80;;;;;;5004693;28;20045;-66
2022/02/19 08:31:36;;;;;;;2.35;0.95;;;5.80;79.90;;;;;;5003852;28;20042;-66
2022/02/19 08:34:02;;;;;;;2.78;1.20;;;5.80;78.20;;;;;;5004744;28;20064;-66
2022/02/19 08:36:28;;;;;;;4.65;1.30;;;5.90;77.00;;;;;;5005526;28;20034;-66
2022/02/19 08:38:53;;;;;;;3.42;0.98;;;5.90;81.60;;;;;;5006177;28;20038;-66
2022/02/19 08:41:19;;;;;;;6.32;1.15;;;6.00;77.50;;;;;;5008964;28;20045;-66
2022/02/19 08:43:45;;;;;;;2.22;0.77;;;6.00;80.20;;;;;;5007790;28;20048;-67
2022/02/19 08:46:10;;;;;;;5.35;1.13;;;6.10;81.60;;;;;;5004705;28;20076;-66
2022/02/19 08:48:36;;;;;;;3.58;1.00;;;6.10;74.00;;;;;;5006993;28;20057;-66
2022/02/19 08:51:02;;;;;;;7.18;1.42;;;6.10;79.80;;;;;;5005493;28;20083;-66
2022/02/19 08:53:30;;;;;;;5.60;1.30;;;6.00;68.60;;;;;;5004028;28;20357;-66
2022/02/19 08:55:57;;;;;;;2.30;0.98;;;6.00;68.00;;;;;;5001949;28;20034;-66
2022/02/19 08:58:23;;;;;;;4.25;1.30;;;6.10;71.70;;;;;;5005016;28;20046;-66
2022/02/19 09:00:49;;;;;;;5.15;1.48;;;6.20;78.50;;;;;;5018343;28;20030;-66
2022/02/19 09:03:14;;;;;;;4.47;1.00;;;6.20;66.00;;;;;;5006511;28;20030;-64
2022/02/19 09:05:41;;;;;;;2.63;1.00;;;6.20;69.90;;;;;;5005860;28;20082;-63
2022/02/19 09:08:08;;;;;;;1.90;1.05;;;6.20;65.70;;;;;;5001819;28;20117;-66
2022/02/19 09:10:33;;;;;;;1.05;0.80;;;6.20;66.10;;;;;;5004363;28;20064;-66
2022/02/19 09:13:01;;;;;;;4.85;1.17;;;6.30;67.10;;;;;;5009686;28;20057;-65
2022/02/19 09:15:28;;;;;;;6.22;1.35;;;6.30;64.80;;;;;;5005469;28;20531;-66
2022/02/19 09:17:54;;;;;;;3.58;1.40;;;6.30;64.50;;;;;;5022842;28;20080;-66
2022/02/19 09:20:21;;;;;;;5.68;1.35;;;6.40;69.20;;;;;;5002891;28;20034;-66
2022/02/19 09:22:47;;;;;;;4.90;1.40;;;6.50;68.00;;;;;;5002758;28;20033;-66
2022/02/19 09:25:14;;;;;;;4.20;1.50;;;6.60;64.70;;;;;;5005824;28;20107;-65
2022/02/19 09:27:39;;;;;;;2.25;1.17;;;6.50;63.50;;;;;;5004257;28;20065;-65
2022/02/19 09:30:07;;;;;;;2.75;1.42;;;6.60;67.00;;;;;;5004019;28;20033;-65
2022/02/19 09:32:33;;;;;;;3.80;1.10;;;6.70;71.60;;;;;;5007150;28;20832;-66
2022/02/19 09:34:59;;;;;;;3.53;1.20;;;6.70;62.90;;;;;;5003137;28;20037;-66
2022/02/19 09:37:28;;;;;;;5.15;1.30;;;6.60;62.90;;;;;;5005656;28;20032;-65
2022/02/19 09:39:55;;;;;;;4.88;1.30;;;6.70;65.20;;;;;;5004579;28;20056;-65
2022/02/19 09:42:20;;;;;;;2.85;1.02;;;6.70;65.80;;;;;;5002150;28;20038;-65
2022/02/19 09:44:48;;;;;;;4.07;1.50;;;6.90;63.50;;;;;;5003218;28;20038;-65
2022/02/19 09:47:14;;;;;;;5.05;1.27;;;7.00;64.20;;;;;;5016165;28;20033;-65
2022/02/19 09:49:41;;;;;;;2.30;1.08;;;7.10;64.70;;;;;;5001630;28;20038;-65
2022/02/19 09:52:07;;;;;;;2.70;1.33;;;6.90;63.50;;;;;;5000843;28;20461;-66
2022/02/19 09:54:32;;;;;;;4.90;1.67;;;6.80;62.30;;;;;;5001296;28;20037;-65
2022/02/19 09:56:58;;;;;;;4.82;1.00;;;6.80;63.50;;;;;;5004690;28;20110;-66
2022/02/19 09:59:24;;;;;;;4.15;1.15;;;6.80;63.30;;;;;;5002814;28;20531;-66
2022/02/19 10:02:00;;;;;;;6.60;1.20;;;6.80;66.50;;;;;;5001265;28;20042;-66
2022/02/19 10:04:26;;;;;;;2.63;1.15;;;7.00;67.50;;;;;;5001606;28;20037;-65
2022/02/19 10:06:52;;;;;;;5.28;1.45;;;6.90;62.00;;;;;;5003136;28;20136;-65
2022/02/19 10:09:19;;;;;;;2.50;0.93;;;6.90;66.60;;;;;;5002232;28;20125;-65
2022/02/19 10:11:47;;;;;;;3.23;1.30;;;7.00;61.90;;;;;;5002640;28;20046;-66
2022/02/19 10:14:22;;;;;;;2.80;1.38;;;7.00;59.90;;;;;;5002810;28;20034;-65
2022/02/19 10:17:11;;;;;;;3.35;1.27;;;7.00;59.10;;;;;;5003449;28;20034;-65
2022/02/19 10:19:53;;;;;;;5.93;1.77;;;7.20;61.90;;;;;;5001713;28;20049;-65
2022/02/19 10:22:24;;;;;;;3.17;1.30;;;7.20;60.40;;;;;;5001459;28;20033;-65
2022/02/19 10:24:52;;;;;;;3.42;1.23;;;7.20;61.40;;;;;;5001590;28;20029;-66
2022/02/19 10:27:18;;;;;;;2.25;1.10;;;7.20;62.50;;;;;;4998412;28;20091;-65
2022/02/19 10:29:55;;;;;;;3.38;0.95;;;7.40;62.80;;;;;;5001210;28;20073;-66
2022/02/19 10:32:22;;;;;;;1.58;0.90;;;7.20;60.10;;;;;;5004339;28;20578;-66
2022/02/19 10:35:05;;;;;;;6.93;1.10;;;7.20;64.10;;;;;;5000546;28;20113;-66
2022/02/19 10:37:47;;;;;;;3.42;1.48;;;7.30;59.90;;;;;;5002493;28;20044;-66
2022/02/19 10:40:33;;;;;;;10.60;1.38;;;7.30;58.90;;;;;;5001724;28;20044;-66
2022/02/19 10:43:01;;;;;;;5.68;1.50;;;7.30;61.80;;;;;;5000697;28;20029;-65
2022/02/19 10:45:28;;;;;;;5.15;1.00;;;7.40;60.90;;;;;;5001206;28;20022;-65
2022/02/19 10:48:09;;;;;;;2.95;1.40;;;7.40;63.10;;;;;;5002564;28;20026;-66
2022/02/19 10:50:35;;;;;;;3.15;1.05;;;7.40;62.80;;;;;;5001469;28;20041;-66
2022/02/19 10:53:00;;;;;;;4.30;1.25;;;7.40;59.40;;;;;;4999489;28;20038;-66
2022/02/19 10:55:30;;;;;;;2.22;0.85;;;7.40;58.50;;;;;;4998592;28;20037;-67
2022/02/19 10:58:00;;;;;;;1.95;1.33;;;7.50;60.30;;;;;;4999799;28;20034;-66
2022/02/19 11:00:26;;;;;;;2.55;1.65;;;7.50;60.20;;;;;;5001937;28;20489;-67
2022/02/19 11:02:56;;;;;;;4.63;1.10;;;7.80;68.30;;;;;;4999225;28;20054;-66
2022/02/19 11:05:23;;;;;;;1.98;1.45;;;7.60;59.00;;;;;;5000591;28;20038;-67
2022/02/19 11:07:50;;;;;;;3.65;1.20;;;7.60;60.00;;;;;;4999639;28;20630;-66
2022/02/19 11:10:21;;;;;;;4.30;1.38;;;7.60;59.60;;;;;;4999493;28;20360;-67
2022/02/19 11:12:48;;;;;;;2.97;1.52;;;7.60;58.60;;;;;;5001053;28;20038;-67
2022/02/19 11:15:19;;;;;;;4.85;1.42;;;7.50;56.60;;;;;;4999597;28;20038;-66
2022/02/19 11:17:49;;;;;;;2.83;1.10;;;7.70;58.90;;;;;;5004659;28;20065;-66
2022/02/19 11:20:18;;;;;;;3.97;1.45;;;8.00;58.10;;;;;;5001468;28;20057;-67
2022/02/19 11:22:44;;;;;;;4.93;1.30;;;8.00;57.50;;;;;;5000698;28;20036;-66
2022/02/19 11:25:20;;;;;;;6.72;1.13;;;8.00;54.90;;;;;;5001244;28;20038;-66
2022/02/19 11:27:50;;;;;;;3.50;1.10;;;7.90;56.40;;;;;;5000825;28;20128;-66
2022/02/19 11:30:16;;;;;;;2.35;1.45;;;8.20;58.00;;;;;;5002408;28;20033;-67
2022/02/19 11:32:43;;;;;;;2.70;0.95;;;8.10;56.50;;;;;;5005496;28;20079;-66
2022/02/19 11:35:10;;;;;;;4.60;2.03;;;8.10;57.00;;;;;;5004511;28;20121;-66
2022/02/19 11:37:43;;;;;;;2.85;1.25;;;8.10;57.70;;;;;;5004590;28;20041;-66
2022/02/19 11:40:13;;;;;;;2.75;0.80;;;8.10;60.20;;;;;;5004692;28;20033;-66
2022/02/19 11:42:42;;;;;;;2.28;1.05;;;8.30;58.00;;;;;;5005535;28;20038;-66
2022/02/19 11:45:22;;;;;;;2.20;0.90;;;8.30;58.40;;;;;;5004308;28;20392;-67
2022/02/19 11:47:49;;;;;;;2.97;1.08;;;8.30;61.10;;;;;;5005924;28;20116;-66
2022/02/19 11:50:26;;;;;;;2.97;1.37;;;8.30;56.60;;;;;;5003318;28;20037;-66
2022/02/19 11:53:13;;;;;;;1.17;1.02;;;8.30;53.30;;;;;;5004276;28;20099;-66
2022/02/19 11:55:40;;;;;;;4.30;1.08;;;8.20;54.80;;;;;;5003811;28;20072;-66
2022/02/19 11:58:08;;;;;;;5.32;1.33;;;8.40;55.40;;;;;;5003908;28;20076;-66
2022/02/19 12:01:09;;;;;;;3.00;1.10;;;8.40;56.60;;;;;;5006439;28;20037;-66
2022/02/19 12:03:35;;;;;;;2.88;1.20;;;8.30;56.10;;;;;;5004133;28;20043;-66
2022/02/19 12:06:27;;;;;;;3.22;1.10;;;8.20;55.40;;;;;;5005793;28;20494;-67
2022/02/19 12:09:10;;;;;;;2.03;0.93;;;8.00;54.60;;;;;;5018080;28;20053;-66
2022/02/19 12:11:55;;;;;;;5.60;1.45;;;7.90;55.60;;;;;;5018617;28;20030;-66
2022/02/19 12:14:57;;;;;;;3.15;1.00;;;8.00;57.20;;;;;;5005374;28;20060;-66
2022/02/19 12:17:41;;;;;;;3.55;1.08;;;7.90;57.40;;;;;;4945820;28;20086;-66
2022/02/19 12:20:09;;;;;;;3.03;1.20;;;7.90;58.90;;;;;;4998814;28;20049;-66
2022/02/19 12:22:48;;;;;;;1.48;1.20;;;7.80;55.00;;;;;;5014164;28;20160;-66
2022/02/19 12:25:16;;;;;;;4.30;1.08;;;7.60;56.90;;;;;;5003948;28;20030;-66
2022/02/19 12:27:43;;;;;;;2.10;1.17;;;7.50;55.10;;;;;;5000605;28;20058;-66
2022/02/19 12:30:19;;;;;;;4.60;1.40;;;8.00;56.60;;;;;;5004181;28;20038;-66
2022/02/19 12:32:47;;;;;;;3.67;1.17;;;8.10;54.20;;;;;;5004007;28;20093;-65
2022/02/19 12:35:13;;;;;;;1.43;0.87;;;8.40;57.40;;;;;;5001370;28;20037;-65
2022/02/19 12:37:38;;;;;;;4.95;1.17;;;8.70;55.80;;;;;;5000578;28;20082;-65
2022/02/19 12:40:05;;;;;;;3.20;1.10;;;8.60;49.30;;;;;;5004910;28;20037;-67
2022/02/19 12:42:32;;;;;;;3.13;1.38;;;8.40;52.20;;;;;;5002108;28;20034;-66
2022/02/19 12:45:09;;;;;;;3.53;1.58;;;8.30;48.20;;;;;;5001035;28;20113;-66
2022/02/19 12:47:36;;;;;;;4.13;1.13;;;8.40;49.50;;;;;;5004031;28;20034;-65
2022/02/19 12:50:04;;;;;;;4.30;1.02;;;8.50;51.60;;;;;;5003940;28;20175;-66
2022/02/19 12:52:40;;;;;;;1.90;1.10;;;8.70;53.20;;;;;;5002061;28;20029;-66
2022/02/19 12:55:16;;;;;;;1.48;0.93;;;8.70;48.80;;;;;;5017577;28;20042;-65
2022/02/19 12:57:43;;;;;;;4.15;1.17;;;8.70;50.00;;;;;;5003496;28;20159;-65
2022/02/19 13:00:09;;;;;;;2.28;1.27;;;8.70;47.30;;;;;;5003484;28;20034;-65
2022/02/19 13:02:45;;;;;;;2.50;0.90;;;8.90;50.20;;;;;;5005163;28;20041;-65
2022/02/19 13:05:17;;;;;;;1.25;0.77;;;9.00;50.40;;;;;;4999876;28;20124;-65
2022/02/19 13:07:43;;;;;;;3.90;1.42;;;9.00;46.90;;;;;;5003276;28;20030;-65